Time;durP1;ratioP1;P1;durP2;ratioP2;P2;SDS_P1;SDS_P2;PMS_P1;PMS_P2;Temp;Humidity;BMP_temperature;BMP_pressure;BME280_temperature;BME280_humidity;BME280_pressure;Samples;Min_cycle;Max_cycle;Signal;HPM_P1;HPM_P2
2020/12/21 00:01:20;;;;;;;12.37;4.13;;;10.80;99.90;;;11.33;58.32;101703.44;4913184;28;97449;-58
2020/12/21 00:03:46;;;;;;;11.73;4.27;;;10.70;99.90;;;11.35;58.50;101698.13;4894716;28;99345;-61
2020/12/21 00:06:16;;;;;;;12.17;4.70;;;10.70;99.90;;;11.32;60.73;101700.84;4890933;28;100517;-62
2020/12/21 00:08:42;;;;;;;11.27;4.97;;;10.70;99.90;;;11.30;59.47;101694.72;4889385;28;98892;-61
2020/12/21 00:11:09;;;;;;;13.80;4.90;;;10.70;99.90;;;11.26;58.73;101698.31;4892140;28;99043;-60
2020/12/21 00:13:44;;;;;;;10.03;4.50;;;10.70;99.90;;;11.21;58.96;101698.44;4900004;28;98916;-62
2020/12/21 00:16:12;;;;;;;10.67;4.90;;;10.60;99.90;;;11.20;59.50;101694.06;4878082;28;100069;-61
2020/12/21 00:18:38;;;;;;;8.50;4.07;;;10.60;99.90;;;11.30;59.32;101697.38;4897208;28;98902;-62
2020/12/21 00:21:11;;;;;;;14.13;4.47;;;10.60;99.90;;;11.21;58.01;101702.84;4870996;28;98317;-60
2020/12/21 00:23:36;;;;;;;10.00;4.37;;;10.60;99.90;;;11.23;59.38;101698.38;4879435;28;97490;-61
2020/12/21 00:26:02;;;;;;;8.87;4.10;;;10.50;99.90;;;11.19;58.98;101699.38;4860283;28;116304;-61
2020/12/21 00:28:28;;;;;;;12.63;4.77;;;10.50;99.90;;;11.19;58.62;101691.44;4894957;28;100383;-60
2020/12/21 00:30:54;;;;;;;8.70;4.50;;;10.50;99.90;;;11.19;58.90;101692.31;4896470;28;97990;-62
2020/12/21 00:33:19;;;;;;;13.77;4.37;;;10.50;99.90;;;11.15;58.69;101690.66;4905620;28;114625;-62
2020/12/21 00:35:45;;;;;;;10.40;4.23;;;10.50;99.90;;;11.16;58.46;101688.88;4879990;28;99192;-60
2020/12/21 00:38:11;;;;;;;10.63;4.30;;;10.50;99.90;;;11.10;58.19;101689.84;4913835;28;121153;-61
2020/12/21 00:40:37;;;;;;;14.27;4.97;;;10.50;99.90;;;11.23;61.99;101683.41;4862458;28;110601;-59
2020/12/21 00:43:03;;;;;;;11.70;4.57;;;10.50;99.90;;;11.24;59.52;101684.28;4910929;28;97081;-62
2020/12/21 00:45:28;;;;;;;10.43;4.33;;;10.50;99.90;;;11.18;58.10;101690.56;4878054;28;98614;-62
2020/12/21 00:47:54;;;;;;;9.27;4.20;;;10.50;99.90;;;11.19;58.46;101691.44;4904154;28;98438;-61
2020/12/21 00:50:20;;;;;;;9.57;3.67;;;10.50;99.90;;;11.13;58.73;101692.44;4895911;28;102714;-62
2020/12/21 00:52:46;;;;;;;9.07;3.90;;;10.50;99.90;;;11.21;58.71;101689.63;4877395;28;105240;-62
2020/12/21 00:55:11;;;;;;;7.63;3.90;;;10.50;99.90;;;11.14;58.49;101693.28;4897797;28;100319;-57
2020/12/21 00:57:37;;;;;;;6.80;3.37;;;10.40;99.90;;;11.18;58.66;101679.16;4876244;28;100341;-62
2020/12/21 01:00:06;;;;;;;8.27;3.50;;;10.40;99.90;;;11.10;57.89;101686.34;4875703;28;97210;-58
2020/12/21 01:02:32;;;;;;;7.97;3.53;;;10.40;99.90;;;11.09;58.40;101679.34;4877543;28;98409;-61
2020/12/21 01:04:58;;;;;;;7.50;3.67;;;10.40;99.90;;;11.12;58.65;101680.13;4911000;28;100850;-61
2020/12/21 01:07:24;;;;;;;7.87;3.67;;;10.40;99.90;;;11.25;61.04;101683.38;4881411;28;104706;-62
2020/12/21 01:09:50;;;;;;;8.20;3.83;;;10.40;99.90;;;11.16;58.12;101691.50;4907039;28;98164;-61
2020/12/21 01:12:16;;;;;;;10.33;4.17;;;10.40;99.90;;;11.21;61.46;101690.50;4864039;28;110589;-61
2020/12/21 01:14:43;;;;;;;6.97;3.60;;;10.40;99.90;;;11.22;58.22;101686.09;4894865;28;101253;-62
2020/12/21 01:17:09;;;;;;;7.60;3.70;;;10.50;99.90;;;11.21;57.91;101689.63;4905559;28;100193;-62
2020/12/21 01:19:36;;;;;;;8.63;4.33;;;10.50;99.90;;;11.30;58.92;101679.75;4912979;28;96870;-62
2020/12/21 01:22:02;;;;;;;10.57;4.10;;;10.50;99.90;;;11.22;57.54;101686.09;4894863;28;99924;-62
2020/12/21 01:24:28;;;;;;;10.00;4.40;;;10.50;99.90;;;11.20;58.82;101682.63;4902950;28;100615;-60
2020/12/21 01:26:54;;;;;;;9.70;3.43;;;10.50;99.90;;;11.12;57.37;101692.47;4911858;28;103190;-60
2020/12/21 01:29:20;;;;;;;7.83;3.90;;;10.40;99.90;;;11.11;57.74;101693.38;4889581;28;97811;-62
2020/12/21 01:31:46;;;;;;;7.00;3.53;;;10.40;99.90;;;11.08;57.37;101704.00;4908662;28;96990;-61
2020/12/21 01:34:15;;;;;;;9.07;3.40;;;10.40;99.90;;;11.13;57.62;101702.13;4875409;28;111879;-62
2020/12/21 01:36:41;;;;;;;7.03;3.73;;;10.40;99.90;;;11.08;58.29;101698.72;4899511;28;100210;-62
2020/12/21 01:39:08;;;;;;;7.10;3.10;;;10.30;99.90;;;11.11;58.36;101696.00;4896416;28;98800;-60
2020/12/21 01:41:34;;;;;;;6.73;3.13;;;10.30;99.90;;;10.98;57.25;101693.63;4895463;28;98857;-60
2020/12/21 01:44:00;;;;;;;9.57;3.10;;;10.20;99.90;;;10.93;57.60;101690.22;4882171;28;119754;-62
2020/12/21 01:46:26;;;;;;;8.57;3.50;;;10.20;99.90;;;10.96;58.18;101687.50;4892709;28;98606;-59
2020/12/21 01:48:53;;;;;;;11.23;3.87;;;10.20;99.90;;;10.90;57.26;101686.78;4878833;28;98764;-60
2020/12/21 01:51:24;;;;;;;6.97;3.00;;;10.20;99.90;;;10.97;58.40;101689.25;4893744;28;97296;-61
2020/12/21 01:53:51;;;;;;;10.37;3.67;;;10.10;99.90;;;11.06;58.59;101689.97;4890659;28;99157;-62
2020/12/21 01:56:18;;;;;;;11.20;3.37;;;10.20;99.90;;;11.28;60.28;101691.22;4879798;28;99682;-61
2020/12/21 01:58:45;;;;;;;8.80;3.50;;;10.30;99.90;;;11.28;57.35;101685.94;5039209;22;97871;-59
2020/12/21 02:01:17;;;;;;;7.40;2.60;;;10.40;99.90;;;11.56;61.03;101691.47;4859211;28;98506;-59
2020/12/21 02:03:44;;;;;;;8.03;3.07;;;10.60;99.90;;;11.53;58.93;101686.25;4873149;28;100297;-60
2020/12/21 02:06:10;;;;;;;5.43;2.70;;;10.60;99.90;;;11.59;58.63;101696.72;4865779;28;114875;-59
2020/12/21 02:08:36;;;;;;;7.27;2.93;;;10.60;99.90;;;11.71;59.14;101690.22;4887039;28;97223;-59
2020/12/21 02:11:03;;;;;;;8.43;3.23;;;10.70;99.90;;;11.70;55.78;101699.06;4865576;28;98141;-59
2020/12/21 02:13:29;;;;;;;7.50;3.00;;;10.80;99.90;;;11.64;56.63;101692.16;4874071;28;98409;-59
2020/12/21 02:15:56;;;;;;;6.43;2.77;;;10.70;99.90;;;11.57;56.42;101694.09;4862278;28;102317;-59
2020/12/21 02:18:21;;;;;;;7.03;3.30;;;10.70;99.90;;;11.44;55.90;101700.56;4893587;28;97294;-61
2020/12/21 02:20:47;;;;;;;8.13;2.97;;;10.70;99.90;;;11.44;56.45;101703.22;4887371;28;100220;-61
2020/12/21 02:23:13;;;;;;;5.83;2.80;;;10.60;99.90;;;11.42;56.27;101694.44;4891263;28;99603;-60
2020/12/21 02:25:39;;;;;;;7.43;2.77;;;10.60;99.90;;;11.44;57.12;101697.06;4878260;28;122098;-64
2020/12/21 02:28:05;;;;;;;7.00;2.83;;;10.60;99.90;;;11.24;56.94;101692.19;4879677;28;100918;-61
2020/12/21 02:30:31;;;;;;;7.47;2.93;;;10.50;99.90;;;11.19;57.62;101699.38;4882278;28;97221;-61
2020/12/21 02:32:56;;;;;;;6.20;3.33;;;10.40;99.90;;;11.09;57.14;101700.47;4876542;28;100860;-62
2020/12/21 02:35:22;;;;;;;7.60;3.10;;;10.40;99.90;;;11.11;57.28;101701.28;4894001;28;104123;-58
2020/12/21 02:37:48;;;;;;;8.20;3.00;;;10.40;99.90;;;11.06;58.43;101696.13;4875363;28;113088;-64
2020/12/21 02:40:14;;;;;;;8.53;3.23;;;10.30;99.90;;;11.00;56.96;101696.25;4889557;28;97794;-61
2020/12/21 02:42:40;;;;;;;7.87;2.70;;;10.30;99.90;;;10.93;57.42;101703.41;4858845;28;100921;-61
2020/12/21 02:45:06;;;;;;;9.03;3.07;;;10.20;99.90;;;10.92;60.20;101708.72;4878777;28;100809;-61
2020/12/21 02:47:31;;;;;;;6.83;3.00;;;10.10;99.90;;;10.91;58.39;101707.00;4857905;28;101216;-59
2020/12/21 02:49:57;;;;;;;7.77;3.20;;;10.20;99.90;;;10.87;59.46;101713.25;4866344;28;99623;-62
2020/12/21 02:52:23;;;;;;;6.53;2.97;;;10.20;99.90;;;11.07;63.60;101702.25;4885733;28;98578;-61
2020/12/21 02:54:49;;;;;;;10.23;3.43;;;10.20;99.90;;;10.91;57.92;101697.31;4877919;28;99953;-61
2020/12/21 02:57:15;;;;;;;7.07;3.07;;;10.20;99.90;;;10.98;58.23;101701.53;4874152;28;98748;-61
2020/12/21 02:59:41;;;;;;;8.13;3.23;;;10.30;99.90;;;11.06;59.62;101711.09;4885174;28;102440;-59
2020/12/21 03:02:07;;;;;;;7.97;2.83;;;10.30;99.90;;;11.11;57.58;101703.94;4890870;28;99538;-61
2020/12/21 03:04:33;;;;;;;9.33;3.20;;;10.40;99.90;;;11.05;57.67;101709.34;4895115;28;98062;-61
2020/12/21 03:07:02;;;;;;;6.20;2.70;;;10.40;99.90;;;11.23;60.73;101701.03;4899239;28;97638;-60
2020/12/21 03:09:28;;;;;;;11.50;5.00;;;10.40;99.90;;;11.18;58.67;101700.28;4879606;28;97731;-60
2020/12/21 03:11:54;;;;;;;6.30;3.40;;;10.50;99.90;;;11.51;58.51;101694.22;4890630;28;107670;-58
2020/12/21 03:14:20;;;;;;;8.77;3.33;;;10.70;99.90;;;11.44;57.15;101700.56;4871630;28;98395;-63
2020/12/21 03:16:46;;;;;;;9.17;3.70;;;10.70;99.90;;;11.72;59.95;101698.16;4902155;28;98279;-59
2020/12/21 03:19:12;;;;;;;7.73;3.20;;;10.80;99.90;;;11.68;56.29;101700.88;4887133;28;96837;-59
2020/12/21 03:21:38;;;;;;;6.53;3.17;;;10.90;99.90;;;11.98;59.44;101700.16;4911491;28;98402;-61
2020/12/21 03:24:04;;;;;;;7.47;3.30;;;11.00;99.90;;;12.17;57.56;101701.47;4898278;28;97208;-60
2020/12/21 03:26:29;;;;;;;6.33;3.17;;;11.30;99.90;;;12.12;55.15;101700.69;4897523;28;97414;-62
2020/12/21 03:28:56;;;;;;;6.60;2.33;;;11.30;99.90;;;12.26;57.15;101707.41;4886975;28;96950;-60
2020/12/21 03:31:22;;;;;;;12.63;3.40;;;11.30;99.90;;;12.30;58.43;101702.03;4910996;28;98516;-59
2020/12/21 03:33:48;;;;;;;12.17;3.70;;;11.40;99.90;;;12.23;54.93;101688.97;4909099;28;115386;-59
2020/12/21 03:36:14;;;;;;;8.97;3.57;;;11.40;99.90;;;12.18;54.31;101691.75;4893303;28;101312;-61
2020/12/21 03:38:39;;;;;;;5.50;3.10;;;11.30;99.90;;;12.03;53.93;101685.09;4885975;28;96993;-59
2020/12/21 03:41:05;;;;;;;5.97;3.03;;;11.20;99.90;;;11.99;55.64;101679.88;4892449;28;98930;-62
2020/12/21 03:43:31;;;;;;;11.77;3.20;;;11.10;99.90;;;11.75;55.17;101674.28;4905522;28;105629;-61
2020/12/21 03:45:57;;;;;;;6.40;3.10;;;11.00;99.90;;;11.78;58.67;101675.97;4890975;28;109130;-61
2020/12/21 03:48:22;;;;;;;8.40;2.83;;;10.90;99.90;;;11.73;55.78;101667.31;4905613;28;97203;-58
2020/12/21 03:50:48;;;;;;;5.67;3.20;;;10.90;99.90;;;11.60;56.17;101664.09;4875738;28;109380;-61
2020/12/21 03:53:14;;;;;;;6.33;3.17;;;10.80;99.90;;;11.61;58.41;101664.03;4908641;28;100062;-61
2020/12/21 03:55:40;;;;;;;7.03;3.03;;;10.80;99.90;;;11.73;57.03;101647.03;4895316;28;110928;-61
2020/12/21 03:58:05;;;;;;;8.63;2.87;;;10.90;99.90;;;11.74;56.07;101650.53;4886564;28;113137;-60
2020/12/21 04:00:32;;;;;;;7.57;3.00;;;10.90;99.90;;;11.70;55.79;101657.66;4896557;28;99380;-62
2020/12/21 04:02:57;;;;;;;6.90;3.30;;;10.90;99.90;;;11.69;55.37;101652.41;4892441;28;99573;-61
2020/12/21 04:05:23;;;;;;;8.60;2.80;;;10.90;99.90;;;11.79;58.89;101648.66;4900826;28;97127;-58
2020/12/21 04:07:49;;;;;;;6.77;3.37;;;10.90;99.90;;;11.75;57.26;101647.00;4871685;28;96905;-57
2020/12/21 04:10:15;;;;;;;8.63;3.00;;;10.90;99.90;;;11.91;57.48;101656.31;4911854;28;97499;-61
2020/12/21 04:12:41;;;;;;;8.60;3.33;;;11.00;99.90;;;11.72;55.42;101668.22;4905632;28;106533;-60
2020/12/21 04:15:07;;;;;;;7.50;2.87;;;11.00;99.90;;;11.62;56.84;101664.91;4911574;28;98957;-62
2020/12/21 04:17:33;;;;;;;10.23;3.30;;;10.80;99.90;;;11.46;56.23;101669.69;4881967;28;104011;-61
2020/12/21 04:19:58;;;;;;;6.63;2.77;;;10.70;99.90;;;11.43;56.46;101664.50;4890812;28;99447;-60
2020/12/21 04:22:24;;;;;;;14.40;3.93;;;10.70;99.90;;;11.30;56.29;101669.19;4895118;28;108856;-61
2020/12/21 04:24:51;;;;;;;7.83;2.77;;;10.60;99.90;;;11.16;56.65;101680.97;4907694;28;112617;-62
2020/12/21 04:27:17;;;;;;;8.07;2.83;;;10.50;99.90;;;11.18;60.85;101668.59;4885262;28;104481;-59
2020/12/21 04:29:42;;;;;;;7.77;3.17;;;10.40;99.90;;;11.04;57.13;101676.81;4905096;28;101051;-61
2020/12/21 04:32:08;;;;;;;13.90;3.20;;;10.30;99.90;;;10.88;57.41;101675.38;4896414;28;100764;-60
2020/12/21 04:34:34;;;;;;;10.00;3.30;;;10.20;99.90;;;10.81;58.04;101672.00;4893237;28;97283;-63
2020/12/21 04:37:02;;;;;;;8.93;3.00;;;10.20;99.90;;;10.75;57.90;101669.50;4909391;28;98950;-60
2020/12/21 04:39:27;;;;;;;5.73;2.83;;;10.10;99.90;;;10.74;57.69;101667.75;4869473;28;99230;-61
2020/12/21 04:41:58;;;;;;;10.03;2.90;;;10.10;99.90;;;10.80;58.57;101662.34;4890092;28;121036;-61
2020/12/21 04:44:25;;;;;;;8.00;2.90;;;10.10;99.90;;;10.77;58.33;101657.13;4882637;28;96984;-58
2020/12/21 04:46:58;;;;;;;5.23;2.47;;;10.10;99.90;;;10.71;57.95;101658.13;4886126;28;97388;-61
2020/12/21 04:49:25;;;;;;;7.73;2.90;;;10.00;99.90;;;10.81;61.45;101658.78;4891191;28;100596;-61
2020/12/21 04:51:51;;;;;;;7.63;2.53;;;10.00;99.90;;;10.75;58.72;101653.66;4905520;28;103735;-62
2020/12/21 04:54:20;;;;;;;7.87;2.97;;;10.10;99.90;;;10.72;58.34;101656.38;4881631;28;98064;-60
2020/12/21 04:56:46;;;;;;;8.70;2.57;;;10.10;99.90;;;10.61;58.42;101656.56;4896716;28;97484;-60
2020/12/21 04:59:14;;;;;;;7.13;3.27;;;10.00;99.90;;;10.56;58.91;101652.25;4873707;28;102759;-57
2020/12/21 05:01:41;;;;;;;6.00;2.60;;;10.00;99.90;;;10.54;59.17;101654.94;4908182;28;99961;-60
2020/12/21 05:04:07;;;;;;;9.07;2.37;;;10.00;99.90;;;10.55;59.53;101655.81;4882532;28;98244;-60
2020/12/21 05:06:33;;;;;;;7.90;2.50;;;10.00;99.90;;;10.55;59.42;101639.97;4896325;28;97953;-60
2020/12/21 05:09:06;;;;;;;6.33;2.80;;;10.00;99.90;;;10.63;59.35;101643.34;4898181;28;96807;-62
2020/12/21 05:11:33;;;;;;;7.47;2.53;;;10.00;99.90;;;10.59;58.89;101639.03;4904979;28;102397;-60
2020/12/21 05:14:10;;;;;;;5.37;2.13;;;10.00;99.90;;;10.61;59.03;101630.19;4904839;28;96938;-61
2020/12/21 05:16:37;;;;;;;5.93;2.60;;;10.00;99.90;;;10.75;59.07;101632.53;4895733;28;99905;-59
2020/12/21 05:19:04;;;;;;;5.57;2.60;;;10.10;99.90;;;10.78;59.40;101629.81;4887689;28;97599;-61
2020/12/21 05:21:31;;;;;;;9.80;2.93;;;10.20;99.90;;;10.96;62.96;101610.94;4860961;28;115453;-61
2020/12/21 05:24:00;;;;;;;8.17;2.60;;;10.20;99.90;;;11.15;60.93;101610.56;4915050;28;97722;-60
2020/12/21 05:26:31;;;;;;;6.07;2.70;;;10.40;99.90;;;11.18;58.99;101607.84;4882330;28;98643;-61
2020/12/21 05:28:59;;;;;;;5.37;2.33;;;10.50;99.90;;;11.13;57.90;101607.06;4894059;28;99013;-60
2020/12/21 05:31:25;;;;;;;5.00;2.10;;;10.50;99.90;;;11.22;61.03;101597.16;4893875;28;97919;-61
2020/12/21 05:33:52;;;;;;;6.97;2.40;;;10.50;99.90;;;11.38;61.75;101597.66;4897607;28;97281;-59
2020/12/21 05:36:23;;;;;;;5.60;2.53;;;10.60;99.90;;;11.44;58.24;101597.53;4869006;28;109343;-61
2020/12/21 05:39:07;;;;;;;6.60;2.17;;;10.70;99.90;;;11.51;59.38;101596.47;4891114;28;97361;-61
2020/12/21 05:41:32;;;;;;;7.17;2.17;;;10.80;99.90;;;11.56;57.95;101591.91;4869657;28;97314;-58
2020/12/21 05:44:05;;;;;;;6.00;2.10;;;10.90;99.90;;;11.56;57.03;101586.63;4908862;28;104076;-60
2020/12/21 05:46:31;;;;;;;5.07;2.33;;;10.90;99.90;;;11.62;57.24;101586.50;4893156;28;98777;-60
2020/12/21 05:48:59;;;;;;;5.80;2.00;;;10.90;99.90;;;11.71;60.84;101589.78;4872354;28;100242;-61
2020/12/21 05:51:34;;;;;;;4.63;2.17;;;11.00;99.90;;;11.70;56.81;101582.78;4904547;28;100102;-61
2020/12/21 05:54:06;;;;;;;6.80;2.60;;;11.00;99.90;;;11.73;59.12;101580.94;4890108;28;97074;-59
2020/12/21 05:56:34;;;;;;;5.70;2.00;;;11.00;99.90;;;11.92;56.07;101576.06;4872063;28;102574;-62
2020/12/21 05:59:01;;;;;;;9.80;2.80;;;11.30;99.90;;;11.95;57.90;101577.75;4874078;28;100835;-61
2020/12/21 06:01:28;;;;;;;6.03;2.80;;;11.30;99.90;;;11.91;55.78;101582.28;4894147;28;100363;-60
2020/12/21 06:04:00;;;;;;;9.20;2.40;;;11.20;99.90;;;11.96;59.13;101585.66;4902876;28;97381;-61
2020/12/21 06:06:29;;;;;;;8.77;2.60;;;11.20;99.90;;;11.89;55.57;101584.09;4927075;28;96807;-61
2020/12/21 06:08:57;;;;;;;11.13;3.00;;;11.20;99.90;;;11.89;58.06;101584.09;4869512;28;100883;-62
2020/12/21 06:11:29;;;;;;;8.90;2.30;;;11.20;99.90;;;11.98;57.32;101570.59;4891956;28;100142;-60
2020/12/21 06:14:02;;;;;;;9.53;3.07;;;11.20;99.90;;;12.04;59.07;101583.69;4893731;28;100106;-60
2020/12/21 06:16:31;;;;;;;6.53;2.30;;;11.20;99.90;;;11.89;56.48;101576.16;4897634;28;97622;-60
2020/12/21 06:19:17;;;;;;;11.37;3.07;;;11.20;99.90;;;11.96;56.34;101577.72;4868791;28;100122;-60
2020/12/21 06:21:54;;;;;;;14.00;3.13;;;11.30;99.90;;;12.00;58.91;101581.13;4894857;28;103646;-60
2020/12/21 06:24:22;;;;;;;10.63;3.03;;;11.30;99.90;;;11.90;56.34;101580.53;4873818;28;98499;-61
2020/12/21 06:26:49;;;;;;;6.33;2.70;;;11.20;99.90;;;11.89;57.56;101568.22;4903548;28;99209;-61
2020/12/21 06:29:20;;;;;;;4.87;2.07;;;11.20;99.90;;;12.06;60.11;101581.84;4890884;28;100658;-59
2020/12/21 06:31:54;;;;;;;7.03;2.57;;;11.20;99.90;;;11.93;56.63;101583.09;4910340;28;98916;-61
2020/12/21 06:34:29;;;;;;;5.70;2.43;;;11.20;99.90;;;12.05;55.69;101588.06;4872534;28;97389;-60
2020/12/21 06:37:08;;;;;;;5.70;2.37;;;11.30;99.90;;;11.95;55.50;101586.56;4907781;28;99760;-60
2020/12/21 06:39:36;;;;;;;11.80;2.97;;;11.30;99.90;;;12.10;55.01;101583.50;4897127;28;100612;-61
2020/12/21 06:42:07;;;;;;;6.00;2.07;;;11.40;99.90;;;12.34;58.60;101589.03;4908068;28;103417;-61
2020/12/21 06:44:37;;;;;;;4.43;1.73;;;11.60;99.90;;;12.36;58.15;101589.84;4885615;28;98851;-61
2020/12/21 06:47:03;;;;;;;4.60;2.20;;;11.60;99.90;;;12.43;57.43;101586.97;4907025;28;97620;-61
2020/12/21 06:49:29;;;;;;;8.10;2.00;;;11.70;99.90;;;12.53;59.22;101582.28;4890608;28;116872;-63
2020/12/21 06:51:55;;;;;;;6.17;2.23;;;11.70;99.90;;;12.71;58.15;101592.34;4899411;28;106065;-61
2020/12/21 06:54:21;;;;;;;9.60;2.83;;;12.00;99.90;;;12.65;54.00;101589.88;4888370;28;97042;-60
2020/12/21 06:56:52;;;;;;;3.53;1.93;;;12.00;99.90;;;12.95;57.06;101580.13;4845687;28;102406;-58
2020/12/21 06:59:21;;;;;;;2.43;1.53;;;12.20;99.90;;;13.01;56.59;101579.94;4915036;28;99177;-61
2020/12/21 07:01:53;;;;;;;4.50;2.37;;;12.20;99.90;;;13.13;53.10;101583.13;4889836;28;98457;-60
2020/12/21 07:04:27;;;;;;;6.47;2.60;;;12.40;99.90;;;13.08;52.16;101577.97;4925535;28;97711;-60
2020/12/21 07:06:54;;;;;;;7.60;2.20;;;12.40;99.90;;;13.00;53.64;101577.34;4892990;28;98103;-59
2020/12/21 07:09:26;;;;;;;3.87;1.57;;;12.30;99.90;;;13.25;54.10;101577.47;4891516;28;97258;-60
2020/12/21 07:11:57;;;;;;;6.80;2.53;;;12.40;99.90;;;13.29;55.89;101574.66;4898691;28;108747;-59
2020/12/21 07:14:25;;;;;;;4.70;2.20;;;12.50;99.90;;;13.28;53.53;101578.22;4923767;28;97462;-61
2020/12/21 07:17:10;;;;;;;5.97;2.13;;;12.50;99.90;;;13.53;56.38;101580.09;4872444;28;97704;-59
2020/12/21 07:19:40;;;;;;;5.73;1.90;;;12.70;99.90;;;13.90;54.92;101577.06;4914234;28;101593;-58
2020/12/21 07:22:07;;;;;;;4.63;2.10;;;13.20;99.90;;;14.12;54.69;101571.84;4896582;28;97682;-59
2020/12/21 07:24:33;;;;;;;7.00;2.27;;;13.60;99.90;;;14.10;52.62;101568.41;4907839;28;96821;-61
2020/12/21 07:26:59;;;;;;;4.47;1.60;;;13.70;98.90;;;14.10;54.42;101568.41;4907394;28;98179;-59
2020/12/21 07:29:36;;;;;;;6.27;2.63;;;13.50;99.90;;;13.92;52.83;101583.19;4890245;28;101283;-59
2020/12/21 07:32:03;;;;;;;2.67;1.87;;;13.30;98.80;;;13.74;53.95;101570.53;4910051;28;99385;-57
2020/12/21 07:34:30;;;;;;;7.40;2.60;;;13.10;99.90;;;13.77;53.02;101563.38;4904692;28;96879;-60
2020/12/21 07:36:57;;;;;;;3.30;1.70;;;13.10;99.90;;;13.74;52.93;101566.09;4886822;28;109062;-59
2020/12/21 07:39:25;;;;;;;4.53;1.90;;;13.00;99.90;;;13.79;53.52;101580.09;4875199;28;99998;-61
2020/12/21 07:41:54;;;;;;;4.07;1.67;;;13.00;99.90;;;13.57;52.08;101568.47;4881182;28;104293;-63
2020/12/21 07:44:24;;;;;;;5.43;2.10;;;12.90;99.90;;;13.44;52.08;101572.44;4910407;28;97307;-61
2020/12/21 07:47:08;;;;;;;8.07;2.33;;;12.70;99.90;;;13.37;52.46;101567.34;4896119;28;96853;-60
2020/12/21 07:49:36;;;;;;;7.40;2.30;;;12.60;99.90;;;13.33;54.26;101570.16;4875365;28;102395;-62
2020/12/21 07:52:07;;;;;;;3.27;1.40;;;12.60;99.90;;;13.53;53.59;101569.50;4916394;28;99298;-60
2020/12/21 07:54:38;;;;;;;8.93;2.43;;;12.70;99.90;;;13.52;55.58;101570.41;4890948;28;103408;-60
2020/12/21 07:57:06;;;;;;;8.00;2.57;;;12.80;99.90;;;13.39;54.00;101581.41;4899182;28;96966;-62
2020/12/21 07:59:32;;;;;;;7.13;2.20;;;12.70;99.90;;;13.51;54.24;101579.28;4858099;28;710928;-61
2020/12/21 08:02:04;;;;;;;5.47;2.20;;;12.80;99.90;;;13.57;55.41;101573.75;4887913;28;99127;-61
2020/12/21 08:04:31;;;;;;;2.83;1.73;;;12.90;99.90;;;13.72;52.74;101567.94;4880421;28;97558;-61
2020/12/21 08:07:10;;;;;;;7.40;2.30;;;13.10;99.90;;;13.82;51.71;101574.66;4897662;28;97347;-60
2020/12/21 08:09:38;;;;;;;5.13;1.37;;;13.30;99.90;;;13.99;54.83;101574.94;4875242;28;97734;-59
2020/12/21 08:12:11;;;;;;;2.80;1.53;;;13.40;99.90;;;14.07;53.73;101579.13;4911719;28;100313;-60
2020/12/21 08:14:37;;;;;;;5.03;2.03;;;13.50;99.90;;;14.23;53.87;101572.34;4886345;28;102364;-61
2020/12/21 08:17:19;;;;;;;4.93;1.93;;;13.70;99.90;;;14.44;52.63;101568.06;4905613;28;96900;-61
2020/12/21 08:19:49;;;;;;;3.07;1.53;;;14.00;99.30;;;14.56;53.74;101568.47;4894529;28;108124;-60
2020/12/21 08:22:19;;;;;;;4.40;1.57;;;14.00;99.90;;;14.73;52.98;101572.25;4912260;28;99055;-58
2020/12/21 08:24:45;;;;;;;4.07;1.80;;;14.30;99.90;;;14.94;52.48;101566.13;4908605;28;96833;-59
2020/12/21 08:27:19;;;;;;;6.13;2.50;;;14.50;99.80;;;15.02;51.47;101560.50;4893661;28;96943;-60
2020/12/21 08:29:45;;;;;;;4.77;2.37;;;14.70;98.50;;;14.90;48.97;101567.19;4869709;28;111615;-64
2020/12/21 08:32:10;;;;;;;2.83;1.30;;;14.60;97.50;;;15.02;52.46;101553.41;4910430;28;123091;-61
2020/12/21 08:34:36;;;;;;;6.97;2.70;;;14.50;99.90;;;15.05;48.77;101547.13;4879025;28;109900;-58
2020/12/21 08:37:02;;;;;;;3.50;1.90;;;14.60;97.90;;;15.06;51.94;101540.88;4906775;28;105048;-59
2020/12/21 08:39:28;;;;;;;3.30;1.67;;;14.60;99.20;;;15.13;51.54;101537.88;4905429;28;110664;-62
2020/12/21 08:42:00;;;;;;;3.30;1.50;;;14.70;98.70;;;15.43;51.62;101540.22;4900110;28;96798;-64
2020/12/21 08:44:28;;;;;;;3.43;1.23;;;15.00;99.30;;;15.69;50.19;101533.81;4913664;28;96850;-61
2020/12/21 08:46:57;;;;;;;1.80;1.07;;;15.50;97.80;;;15.98;48.49;101543.19;4895209;28;108252;-61
2020/12/21 08:49:25;;;;;;;2.07;1.40;;;15.90;96.90;;;16.08;49.15;101544.53;4908741;28;104515;-61
2020/12/21 08:51:51;;;;;;;2.70;1.53;;;16.00;96.30;;;16.05;49.30;101539.31;4864145;28;104510;-60
2020/12/21 08:54:18;;;;;;;2.17;1.30;;;15.90;96.50;;;15.92;49.40;101546.16;4895129;28;97232;-61
2020/12/21 08:56:52;;;;;;;8.13;3.00;;;15.70;97.10;;;16.00;48.40;101539.53;4902189;28;109542;-59
2020/12/21 08:59:19;;;;;;;1.83;1.10;;;15.80;95.60;;;16.12;49.41;101538.13;4908458;28;100189;-62
2020/12/21 09:01:46;;;;;;;3.30;1.33;;;15.90;97.40;;;16.19;49.26;101541.38;4867087;28;99831;-61
2020/12/21 09:04:12;;;;;;;3.30;1.37;;;15.90;97.10;;;16.36;48.55;101533.50;4904306;28;96789;-62
2020/12/21 09:06:38;;;;;;;5.63;2.20;;;16.30;95.70;;;16.15;47.09;101530.00;4886781;28;100477;-58
2020/12/21 09:09:05;;;;;;;3.40;1.40;;;16.10;94.20;;;16.21;48.51;101532.41;4881890;28;98846;-60
2020/12/21 09:11:31;;;;;;;6.40;2.70;;;16.10;95.70;;;16.27;44.75;101529.44;4890125;28;99201;-58
2020/12/21 09:13:57;;;;;;;2.17;0.93;;;16.20;94.30;;;16.44;46.91;101536.66;4909700;28;118420;-60
2020/12/21 09:16:27;;;;;;;5.13;1.83;;;16.40;95.30;;;16.26;47.50;101533.03;4886890;28;96988;-60
2020/12/21 09:18:55;;;;;;;2.77;1.37;;;16.10;95.50;;;16.13;46.29;101537.19;4910091;28;100511;-61
2020/12/21 09:21:24;;;;;;;4.00;1.70;;;15.90;95.40;;;16.17;48.76;101527.25;4900398;28;100080;-64
2020/12/21 09:23:53;;;;;;;4.80;2.00;;;15.90;95.90;;;16.00;48.46;101518.25;4896343;28;104820;-61
2020/12/21 09:26:20;;;;;;;3.60;1.53;;;15.70;96.50;;;15.84;47.81;101519.84;4908648;28;97933;-56
2020/12/21 09:28:49;;;;;;;4.10;1.60;;;15.50;95.80;;;15.84;49.86;101513.69;4874298;28;100053;-59
2020/12/21 09:31:16;;;;;;;6.60;2.60;;;15.40;97.20;;;15.71;47.14;101514.19;4900764;28;99413;-58
2020/12/21 09:33:43;;;;;;;6.83;2.37;;;15.40;95.80;;;15.30;48.37;101513.28;4875607;28;99269;-59
2020/12/21 09:36:10;;;;;;;12.13;3.13;;;15.00;96.30;;;15.08;50.43;101518.63;4916653;28;97090;-60
2020/12/21 09:38:37;;;;;;;1.57;1.13;;;14.60;97.20;;;15.24;51.15;101512.69;4889250;28;99626;-61
2020/12/21 09:41:04;;;;;;;4.00;1.20;;;14.60;98.90;;;15.30;51.48;101507.09;4899827;28;100011;-60
2020/12/21 09:43:30;;;;;;;6.73;2.03;;;14.80;98.90;;;15.36;49.13;101496.22;4877912;28;110693;-59
2020/12/21 09:45:56;;;;;;;2.80;1.50;;;15.10;96.80;;;15.60;49.45;101489.88;4891082;28;97138;-61
2020/12/21 09:48:22;;;;;;;2.00;1.00;;;15.40;96.80;;;15.86;49.98;101479.88;4878353;28;114421;-60
2020/12/21 09:50:48;;;;;;;5.13;1.90;;;15.70;97.00;;;15.93;47.33;101481.34;4894992;28;99246;-58
2020/12/21 09:53:15;;;;;;;3.27;1.87;;;15.80;95.90;;;16.09;46.15;101481.53;4877703;28;97725;-59
2020/12/21 09:55:42;;;;;;;2.17;1.17;;;16.10;95.30;;;15.93;48.26;101476.03;4886589;28;97583;-59
2020/12/21 09:58:09;;;;;;;7.57;2.33;;;15.80;95.60;;;15.61;47.49;101486.28;4879481;28;104534;-60
2020/12/21 10:00:35;;;;;;;3.00;1.40;;;15.40;95.80;;;15.61;50.63;101470.31;4863980;28;100198;-59
2020/12/21 10:03:00;;;;;;;1.63;1.20;;;15.20;97.70;;;15.83;49.84;101464.06;4875600;28;96819;-59
2020/12/21 10:05:26;;;;;;;6.77;2.70;;;15.50;97.10;;;15.73;47.19;101472.44;4872063;28;97176;-60
2020/12/21 10:07:52;;;;;;;4.93;2.30;;;15.60;95.30;;;15.77;48.46;101465.22;4891157;28;107726;-60
2020/12/21 10:10:18;;;;;;;6.27;2.10;;;15.60;96.30;;;15.73;49.40;101459.13;4897715;28;111427;-59